Terminal Aerodrome Forecast
Issued by NWS Shreveport, LA

Home | Current Version | Previous Version | Text Only | Print | Product List | Glossary On
Versions: 1 2 3 4 5 6 7 8 9 10 11 12 13
000
FTUS44 KSHV 201141
TAFTYR
TAF
KTYR 201141Z 2012/2112 19011KT P6SM SCT008 BKN012
     FM201500 19012G19KT P6SM BKN020
      TEMPO 2016/2017 SCT025 SCT250
     FM201700 19012G18KT P6SM SCT035 SCT250
     FM210100 16009KT P6SM SKC
     FM210800 18008KT P6SM BKN012=

USA.gov is the U.S. government's official web portal to all federal, state and local government web resources and services.